createdAt,value
2018-03-11T00:01:20.672Z,21.57
2018-03-11T00:03:49.954Z,21.52
2018-03-11T00:06:19.096Z,21.36
2018-03-11T00:08:48.120Z,21.15
2018-03-11T00:11:17.003Z,21.05
2018-03-11T00:13:46.154Z,21.01
2018-03-11T00:16:15.163Z,21.00
2018-03-11T00:18:44.386Z,21.01
2018-03-11T00:21:13.412Z,21.30
2018-03-11T00:23:42.655Z,21.41
2018-03-11T00:26:12.639Z,21.36
2018-03-11T00:28:41.761Z,21.49
2018-03-11T00:31:10.786Z,21.60
2018-03-11T00:33:39.777Z,21.54
2018-03-11T00:36:08.780Z,21.52
2018-03-11T00:38:37.836Z,21.40
2018-03-11T00:41:07.436Z,21.44
2018-03-11T00:43:36.463Z,21.26
2018-03-11T00:46:05.876Z,21.16
2018-03-11T00:48:34.915Z,21.20
2018-03-11T00:51:04.136Z,21.12
2018-03-11T00:53:33.110Z,20.98
2018-03-11T00:56:02.580Z,20.99
2018-03-11T00:58:31.889Z,20.98
2018-03-11T01:01:00.950Z,21.07
2018-03-11T01:03:30.101Z,21.03
2018-03-11T01:05:59.076Z,21.15
2018-03-11T01:08:28.447Z,21.22
2018-03-11T01:10:57.462Z,21.27
2018-03-11T01:13:26.376Z,21.34
2018-03-11T01:15:55.405Z,21.23
2018-03-11T01:18:24.368Z,21.22
2018-03-11T01:20:53.458Z,21.39
2018-03-11T01:23:22.738Z,21.54
2018-03-11T01:25:51.677Z,21.48
2018-03-11T01:28:20.830Z,21.60
2018-03-11T01:30:50.109Z,21.66
2018-03-11T01:33:19.098Z,21.65
2018-03-11T01:35:48.103Z,21.85
2018-03-11T01:38:17.201Z,21.91
2018-03-11T01:40:46.532Z,22.00
2018-03-11T01:43:17.090Z,22.00
2018-03-11T01:45:46.372Z,21.96
2018-03-11T01:48:15.683Z,22.29
2018-03-11T01:50:44.636Z,22.30
2018-03-11T01:53:13.869Z,22.59
2018-03-11T01:55:42.848Z,22.74
2018-03-11T01:58:12.322Z,23.07
2018-03-11T02:00:41.224Z,23.25
2018-03-11T02:03:10.301Z,23.36
2018-03-11T02:05:39.208Z,23.73
2018-03-11T02:08:09.193Z,23.95
2018-03-11T02:10:38.352Z,23.98
2018-03-11T02:13:07.498Z,24.22
2018-03-11T02:15:36.379Z,24.30
2018-03-11T02:18:05.264Z,24.25
2018-03-11T02:20:34.504Z,24.51
2018-03-11T02:23:03.656Z,24.85
2018-03-11T02:25:32.742Z,25.29
2018-03-11T02:28:01.729Z,25.28
2018-03-11T02:30:30.852Z,25.56
2018-03-11T02:32:59.813Z,25.99
2018-03-11T02:35:28.923Z,25.91
2018-03-11T02:37:57.909Z,26.08
2018-03-11T02:40:26.907Z,26.08
2018-03-11T02:42:56.103Z,26.40
2018-03-11T02:45:25.507Z,26.74
2018-03-11T02:47:54.331Z,26.83
2018-03-11T02:50:29.119Z,27.11
2018-03-11T02:52:58.427Z,26.97
2018-03-11T02:55:27.582Z,27.03
2018-03-11T02:57:57.474Z,27.67
2018-03-11T03:00:26.792Z,27.73
2018-03-11T03:02:56.098Z,27.76
2018-03-11T03:05:25.182Z,28.21
2018-03-11T03:07:54.605Z,28.12
2018-03-11T03:10:23.592Z,28.43
2018-03-11T03:12:52.770Z,28.22
2018-03-11T03:15:22.193Z,28.52
2018-03-11T03:17:51.308Z,28.59
2018-03-11T03:20:20.828Z,28.64
2018-03-11T03:22:49.622Z,29.03
2018-03-11T03:25:18.652Z,28.98
2018-03-11T03:27:47.569Z,28.88
2018-03-11T03:30:16.531Z,28.81
2018-03-11T03:32:45.548Z,29.42
2018-03-11T03:35:14.631Z,29.39
2018-03-11T03:37:43.966Z,29.38
2018-03-11T03:40:12.938Z,29.49
2018-03-11T03:42:41.879Z,29.54
2018-03-11T03:45:10.993Z,29.94
2018-03-11T03:47:40.487Z,30.11
2018-03-11T03:50:09.250Z,30.37
2018-03-11T03:52:38.395Z,29.74
2018-03-11T03:55:07.308Z,30.61
2018-03-11T03:57:36.578Z,30.25
2018-03-11T04:00:05.833Z,30.79
2018-03-11T04:02:34.827Z,30.57
2018-03-11T04:05:04.399Z,31.15
2018-03-11T04:07:33.560Z,31.05
2018-03-11T04:10:02.991Z,30.32
2018-03-11T04:12:32.323Z,30.85
2018-03-11T04:15:01.517Z,30.98
2018-03-11T04:17:30.578Z,31.08
2018-03-11T04:19:59.753Z,30.92
2018-03-11T04:22:28.828Z,31.07
2018-03-11T04:24:57.923Z,30.91
2018-03-11T04:27:27.066Z,30.72
2018-03-11T04:29:56.063Z,31.35
2018-03-11T04:32:24.908Z,31.36
2018-03-11T04:34:54.026Z,31.31
2018-03-11T04:37:23.008Z,31.30
2018-03-11T04:39:52.019Z,31.67
2018-03-11T04:42:21.496Z,31.71
2018-03-11T04:44:50.580Z,31.94
2018-03-11T04:47:19.865Z,32.00
2018-03-11T04:49:49.272Z,32.64
2018-03-11T04:52:18.357Z,32.53
2018-03-11T04:54:47.554Z,32.09
2018-03-11T04:57:16.774Z,32.42
2018-03-11T04:59:45.766Z,32.45
2018-03-11T05:02:14.850Z,32.68
2018-03-11T05:04:44.231Z,32.83
2018-03-11T05:07:13.195Z,33.43
2018-03-11T05:09:43.514Z,33.56
2018-03-11T05:12:12.567Z,33.24
2018-03-11T05:14:41.577Z,32.92
2018-03-11T05:17:10.821Z,33.07
2018-03-11T05:19:40.131Z,33.20
2018-03-11T05:22:09.536Z,33.07
2018-03-11T05:24:38.685Z,33.26
2018-03-11T05:27:07.816Z,33.87
2018-03-11T05:29:37.111Z,33.52
2018-03-11T05:32:06.461Z,33.73
2018-03-11T05:34:35.740Z,33.82
2018-03-11T05:37:05.480Z,34.19
2018-03-11T05:39:34.812Z,33.84
2018-03-11T05:42:04.346Z,34.40
2018-03-11T05:44:33.753Z,34.74
2018-03-11T05:47:02.906Z,33.43
2018-03-11T05:49:32.165Z,33.94
2018-03-11T05:52:01.617Z,34.30
2018-03-11T05:54:30.582Z,34.79
2018-03-11T05:57:00.338Z,34.85
2018-03-11T05:59:29.828Z,35.43
2018-03-11T06:01:58.914Z,35.02
2018-03-11T06:04:27.908Z,34.51
2018-03-11T06:06:57.130Z,35.08
2018-03-11T06:09:25.972Z,34.83
2018-03-11T06:11:54.866Z,35.28
2018-03-11T06:14:23.833Z,35.33
2018-03-11T06:16:52.868Z,35.34
2018-03-11T06:19:21.868Z,35.63
2018-03-11T06:21:51.004Z,35.84
2018-03-11T06:24:19.827Z,34.97
2018-03-11T06:26:48.902Z,34.94
2018-03-11T06:29:18.046Z,34.78
2018-03-11T06:31:47.074Z,34.74
2018-03-11T06:34:16.082Z,34.65
2018-03-11T06:36:45.464Z,34.50
2018-03-11T06:39:14.857Z,35.22
2018-03-11T06:41:44.572Z,35.05
2018-03-11T06:44:15.330Z,34.77
2018-03-11T06:46:44.409Z,35.31
2018-03-11T06:49:14.050Z,35.41
2018-03-11T06:51:43.725Z,35.42
2018-03-11T06:54:13.592Z,34.60
2018-03-11T06:56:42.810Z,34.05
2018-03-11T06:59:12.443Z,34.72
2018-03-11T07:01:41.934Z,35.12
2018-03-11T07:04:11.208Z,35.26
2018-03-11T07:06:40.452Z,35.29
2018-03-11T07:09:09.666Z,35.40
2018-03-11T07:11:38.740Z,35.31
2018-03-11T07:14:07.937Z,34.95
2018-03-11T07:16:37.258Z,35.30
2018-03-11T07:19:06.191Z,34.56
2018-03-11T07:21:35.712Z,34.79
2018-03-11T07:24:04.893Z,34.96
2018-03-11T07:26:34.074Z,34.05
2018-03-11T07:29:03.292Z,34.07
2018-03-11T07:31:32.950Z,34.16
2018-03-11T07:34:02.842Z,34.28
2018-03-11T07:36:32.203Z,34.10
2018-03-11T07:39:01.191Z,34.58
2018-03-11T07:41:30.424Z,35.11
2018-03-11T07:43:59.673Z,34.12
2018-03-11T07:46:28.988Z,34.88
2018-03-11T07:48:58.149Z,35.58
2018-03-11T07:51:27.347Z,35.09
2018-03-11T07:53:56.494Z,34.60
2018-03-11T07:56:25.740Z,34.62
2018-03-11T07:58:54.744Z,34.79
2018-03-11T08:01:24.076Z,34.92
2018-03-11T08:03:53.307Z,34.97
2018-03-11T08:06:22.616Z,34.83
2018-03-11T08:08:55.700Z,35.05
2018-03-11T08:11:25.597Z,35.26
2018-03-11T08:13:56.610Z,34.87
2018-03-11T08:16:27.576Z,34.58
2018-03-11T08:18:57.570Z,35.17
2018-03-11T08:21:27.877Z,34.56
2018-03-11T08:23:59.563Z,35.06
2018-03-11T08:26:28.515Z,34.53
2018-03-11T08:28:57.813Z,34.91
2018-03-11T08:31:26.652Z,34.70
2018-03-11T08:33:55.612Z,34.79
2018-03-11T08:36:24.798Z,34.24
2018-03-11T08:38:53.911Z,34.45
2018-03-11T08:41:22.986Z,34.40
2018-03-11T08:43:52.239Z,34.60
2018-03-11T08:46:22.126Z,34.91
2018-03-11T08:48:51.292Z,34.84
2018-03-11T08:51:20.252Z,34.77
2018-03-11T08:53:49.746Z,34.62
2018-03-11T08:56:18.857Z,34.73
2018-03-11T08:58:48.284Z,34.99
2018-03-11T09:01:17.178Z,34.66
2018-03-11T09:03:46.290Z,34.74
2018-03-11T09:06:15.622Z,34.37
2018-03-11T09:08:44.978Z,34.03
2018-03-11T09:11:14.039Z,33.85
2018-03-11T09:13:43.105Z,34.17
2018-03-11T09:16:12.578Z,34.07
2018-03-11T09:18:41.539Z,33.83
2018-03-11T09:21:10.450Z,33.89
2018-03-11T09:23:39.821Z,33.98
2018-03-11T09:26:08.949Z,31.62
2018-03-11T09:32:45.602Z,28.38
2018-03-11T09:35:14.888Z,28.18
2018-03-11T09:37:59.289Z,27.62
2018-03-11T09:40:28.729Z,27.60
2018-03-11T09:42:58.223Z,27.59
2018-03-11T09:45:27.566Z,27.61
2018-03-11T09:47:56.994Z,27.61
2018-03-11T09:50:26.678Z,27.62
2018-03-11T09:52:56.304Z,27.62
2018-03-11T09:55:25.582Z,27.65
2018-03-11T09:57:54.844Z,27.66
2018-03-11T10:00:24.306Z,27.67
2018-03-11T10:02:53.397Z,27.67
2018-03-11T10:05:22.357Z,27.69
2018-03-11T10:07:51.656Z,27.73
2018-03-11T10:10:21.182Z,27.77
2018-03-11T10:12:50.868Z,27.80
2018-03-11T10:15:20.246Z,27.77
2018-03-11T10:17:49.389Z,27.72
2018-03-11T10:20:18.838Z,27.68
2018-03-11T10:22:48.196Z,27.68
2018-03-11T10:25:17.590Z,27.72
2018-03-11T10:27:46.955Z,27.75
2018-03-11T10:30:16.461Z,27.75
2018-03-11T10:32:45.699Z,27.75
2018-03-11T10:35:14.687Z,27.75
2018-03-11T10:37:43.999Z,27.76
2018-03-11T10:40:14.192Z,27.76
2018-03-11T10:42:43.682Z,27.76
2018-03-11T10:45:12.881Z,27.77
2018-03-11T10:47:42.332Z,27.77
2018-03-11T10:50:11.602Z,27.77
2018-03-11T10:52:40.718Z,27.78
2018-03-11T10:55:09.897Z,27.79
2018-03-11T10:57:39.351Z,27.79
2018-03-11T11:00:08.696Z,27.80
2018-03-11T11:02:38.043Z,27.80
2018-03-11T11:05:07.292Z,27.81
2018-03-11T11:07:36.672Z,27.83
2018-03-11T11:10:05.952Z,27.83
2018-03-11T11:12:34.982Z,27.83
2018-03-11T11:15:04.212Z,27.84
2018-03-11T11:17:33.277Z,27.85
2018-03-11T11:20:02.706Z,27.86
2018-03-11T11:22:31.971Z,27.87
2018-03-11T11:25:01.010Z,27.88
2018-03-11T11:27:30.708Z,27.89
2018-03-11T11:29:59.958Z,27.90
2018-03-11T11:32:29.176Z,27.91
2018-03-11T11:34:58.206Z,27.92
2018-03-11T11:37:28.239Z,27.92
2018-03-11T11:39:57.323Z,27.93
2018-03-11T11:42:26.479Z,27.94
2018-03-11T11:44:55.967Z,27.94
2018-03-11T11:47:25.496Z,27.96
2018-03-11T11:49:55.077Z,27.97
2018-03-11T11:52:24.404Z,27.98
2018-03-11T11:54:53.526Z,27.98
2018-03-11T11:57:23.880Z,28.00
2018-03-11T11:59:53.154Z,28.01
2018-03-11T12:02:22.480Z,28.02
2018-03-11T12:04:51.517Z,28.02
2018-03-11T12:07:20.997Z,28.04
2018-03-11T12:09:50.176Z,28.04
2018-03-11T12:12:19.858Z,28.19
2018-03-11T12:14:49.216Z,28.19
2018-03-11T12:17:18.785Z,28.27
2018-03-11T12:19:48.076Z,28.29
2018-03-11T12:22:17.404Z,28.29
2018-03-11T12:24:46.582Z,28.41
2018-03-11T12:27:16.053Z,28.50
2018-03-11T12:29:45.934Z,28.54
2018-03-11T12:32:15.054Z,28.58
2018-03-11T12:34:44.003Z,28.58
2018-03-11T12:37:13.296Z,28.58
2018-03-11T12:39:42.816Z,28.58
2018-03-11T12:42:12.440Z,28.57
2018-03-11T12:44:41.791Z,28.57
2018-03-11T12:47:11.144Z,28.56
2018-03-11T12:49:40.471Z,28.58
2018-03-11T12:52:09.881Z,28.57
2018-03-11T12:54:39.246Z,28.58
2018-03-11T12:57:08.364Z,28.58
2018-03-11T12:59:37.959Z,28.60
2018-03-11T13:02:07.254Z,28.60
2018-03-11T13:04:37.526Z,28.60
2018-03-11T13:07:07.312Z,28.61
2018-03-11T13:09:37.283Z,28.60
2018-03-11T13:12:07.117Z,28.59
2018-03-11T13:14:38.308Z,28.58
2018-03-11T13:17:08.313Z,28.59
2018-03-11T13:19:38.174Z,28.62
2018-03-11T13:22:08.210Z,28.64
2018-03-11T13:24:37.479Z,28.64
2018-03-11T13:27:06.544Z,28.67
2018-03-11T13:29:35.665Z,28.69
2018-03-11T13:32:16.388Z,28.70
2018-03-11T13:34:45.738Z,28.70
2018-03-11T13:37:14.842Z,28.77
2018-03-11T13:39:55.842Z,28.80
2018-03-11T13:42:25.121Z,28.80
2018-03-11T13:45:05.459Z,28.80
2018-03-11T13:47:34.789Z,28.81
2018-03-11T13:50:04.140Z,28.86
2018-03-11T13:52:44.522Z,28.92
2018-03-11T13:55:13.807Z,28.90
2018-03-11T14:00:43.421Z,28.90
2018-03-11T14:03:12.491Z,28.90
2018-03-11T14:05:41.958Z,28.91
2018-03-11T14:08:11.510Z,28.90
2018-03-11T14:10:40.653Z,28.90
2018-03-11T14:13:09.848Z,28.90
2018-03-11T14:15:39.568Z,28.93
2018-03-11T14:18:08.997Z,28.93
2018-03-11T14:20:38.239Z,28.94
2018-03-11T14:23:07.347Z,28.95
2018-03-11T14:25:36.624Z,28.96
2018-03-11T14:28:07.530Z,28.97
2018-03-11T14:30:36.880Z,29.01
2018-03-11T14:33:06.017Z,29.08
2018-03-11T14:35:35.635Z,29.04
2018-03-11T14:38:05.034Z,28.97
2018-03-11T14:40:35.733Z,28.97
2018-03-11T14:43:05.224Z,28.95
2018-03-11T14:45:34.571Z,28.97
2018-03-11T14:48:04.133Z,28.97
2018-03-11T14:50:33.093Z,28.98
2018-03-11T14:53:02.192Z,28.99
2018-03-11T14:55:31.373Z,28.98
2018-03-11T14:58:00.556Z,28.98
2018-03-11T15:00:30.065Z,28.99
2018-03-11T15:02:59.181Z,28.99
2018-03-11T15:05:28.690Z,29.00
2018-03-11T15:07:58.104Z,29.01
2018-03-11T15:10:27.360Z,29.02
2018-03-11T15:12:56.736Z,29.04
2018-03-11T15:15:25.825Z,29.04
2018-03-11T15:17:55.738Z,29.04
2018-03-11T15:20:25.351Z,29.03
2018-03-11T15:22:54.671Z,29.00
2018-03-11T15:25:24.323Z,29.00
2018-03-11T15:27:55.578Z,29.00
2018-03-11T15:30:25.271Z,29.00
2018-03-11T15:32:54.831Z,29.00
2018-03-11T15:35:25.103Z,29.00
2018-03-11T15:37:55.495Z,29.01
2018-03-11T15:40:24.918Z,29.01
2018-03-11T15:42:54.387Z,29.00
2018-03-11T15:45:23.702Z,29.01
2018-03-11T15:47:53.032Z,29.00
2018-03-11T15:50:22.298Z,29.03
2018-03-11T15:52:51.776Z,29.07
2018-03-11T15:55:20.955Z,29.08
2018-03-11T15:57:49.957Z,29.10
2018-03-11T16:00:19.267Z,29.09
2018-03-11T16:02:48.570Z,29.09
2018-03-11T16:05:18.183Z,29.07
2018-03-11T16:07:47.401Z,29.06
2018-03-11T16:10:16.631Z,29.04
2018-03-11T16:12:45.752Z,29.04
2018-03-11T16:15:14.789Z,29.04
2018-03-11T16:17:43.907Z,29.03
2018-03-11T16:20:12.908Z,29.02
2018-03-11T16:22:42.046Z,29.02
2018-03-11T16:25:11.498Z,29.00
2018-03-11T16:27:40.950Z,28.99
2018-03-11T16:30:10.109Z,29.00
2018-03-11T16:32:40.412Z,28.99
2018-03-11T16:35:09.710Z,28.98
2018-03-11T16:37:40.754Z,28.99
2018-03-11T16:40:11.259Z,28.98
2018-03-11T16:42:41.454Z,28.98
2018-03-11T16:45:12.071Z,28.98
2018-03-11T16:47:44.035Z,28.98
2018-03-11T16:50:13.227Z,28.98
2018-03-11T16:52:42.653Z,28.97
2018-03-11T16:55:11.880Z,28.97
2018-03-11T16:57:41.349Z,28.97
2018-03-11T17:00:10.864Z,28.96
2018-03-11T17:02:40.011Z,28.96
2018-03-11T17:05:09.029Z,28.96
2018-03-11T17:07:38.084Z,28.95
2018-03-11T17:10:06.933Z,28.96
2018-03-11T17:12:36.179Z,28.96
2018-03-11T17:15:05.494Z,29.05
2018-03-11T17:17:34.985Z,28.80
2018-03-11T17:20:04.161Z,27.74
2018-03-11T17:22:33.337Z,27.16
2018-03-11T17:25:02.817Z,26.78
2018-03-11T17:27:32.080Z,26.42
2018-03-11T17:30:01.217Z,26.20
2018-03-11T17:32:30.756Z,26.04
2018-03-11T17:34:59.932Z,25.88
2018-03-11T17:37:28.979Z,25.73
2018-03-11T17:39:59.397Z,25.58
2018-03-11T17:42:29.288Z,25.53
2018-03-11T17:44:58.775Z,26.04
2018-03-11T17:47:29.611Z,26.33
2018-03-11T17:49:59.109Z,25.88
2018-03-11T17:52:28.174Z,25.59
2018-03-11T17:54:58.075Z,25.42
2018-03-11T17:57:27.215Z,25.24
2018-03-11T17:59:56.288Z,25.18
2018-03-11T18:02:25.739Z,25.12
2018-03-11T18:04:55.028Z,25.19
2018-03-11T18:10:17.705Z,25.61
2018-03-11T18:12:47.090Z,25.26
2018-03-11T18:15:16.234Z,25.52
2018-03-11T18:17:45.191Z,25.93
2018-03-11T18:20:14.212Z,25.50
2018-03-11T18:22:43.429Z,25.34
2018-03-11T18:25:12.590Z,25.98
2018-03-11T18:27:41.762Z,25.48
2018-03-11T18:30:11.055Z,25.37
2018-03-11T18:32:41.841Z,25.93
2018-03-11T18:35:12.162Z,25.83
2018-03-11T18:37:42.053Z,25.40
2018-03-11T18:40:11.750Z,25.78
2018-03-11T18:42:42.001Z,25.83
2018-03-11T18:45:11.115Z,25.33
2018-03-11T18:47:40.340Z,25.60
2018-03-11T18:50:09.459Z,25.88
2018-03-11T18:52:38.765Z,25.49
2018-03-11T18:55:08.325Z,25.43
2018-03-11T18:57:37.661Z,25.94
2018-03-11T19:00:07.149Z,25.65
2018-03-11T19:02:36.581Z,25.29
2018-03-11T19:05:05.796Z,25.76
2018-03-11T19:07:35.083Z,25.78
2018-03-11T19:10:04.488Z,25.40
2018-03-11T19:12:33.707Z,25.52
2018-03-11T19:15:02.940Z,25.96
2018-03-11T19:17:32.047Z,25.54
2018-03-11T19:20:01.496Z,25.23
2018-03-11T19:22:30.448Z,25.73
2018-03-11T19:24:59.653Z,25.84
2018-03-11T19:27:28.836Z,25.32
2018-03-11T19:29:57.908Z,25.39
2018-03-11T19:32:27.065Z,25.89
2018-03-11T19:34:56.294Z,25.61
2018-03-11T19:37:25.300Z,25.18
2018-03-11T19:39:54.441Z,25.54
2018-03-11T19:42:23.638Z,25.88
2018-03-11T19:44:52.999Z,25.47
2018-03-11T19:47:22.420Z,25.15
2018-03-11T19:49:51.521Z,25.65
2018-03-11T19:52:20.708Z,25.71
2018-03-11T19:54:49.927Z,25.14
2018-03-11T19:57:19.815Z,25.17
2018-03-11T19:59:49.107Z,25.68
2018-03-11T20:02:18.255Z,25.56
2018-03-11T20:04:47.805Z,24.95
2018-03-11T20:07:17.191Z,25.23
2018-03-11T20:09:46.137Z,25.73
2018-03-11T20:12:15.750Z,26.05
2018-03-11T20:14:44.917Z,26.49
2018-03-11T20:17:14.369Z,26.68
2018-03-11T20:19:43.379Z,26.82
2018-03-11T20:22:12.766Z,26.54
2018-03-11T20:24:41.668Z,26.13
2018-03-11T20:27:10.893Z,26.01
2018-03-11T20:29:40.182Z,26.36
2018-03-11T20:32:09.631Z,27.08
2018-03-11T20:34:38.959Z,26.73
2018-03-11T20:37:08.257Z,26.93
2018-03-11T20:39:37.715Z,26.24
2018-03-11T20:42:07.271Z,25.43
2018-03-11T20:44:36.329Z,25.64
2018-03-11T20:47:05.585Z,26.02
2018-03-11T20:49:34.737Z,26.33
2018-03-11T20:52:04.356Z,26.65
2018-03-11T20:54:33.628Z,26.82
2018-03-11T20:57:02.923Z,25.92
2018-03-11T20:59:32.403Z,25.26
2018-03-11T21:02:02.022Z,25.73
2018-03-11T21:04:31.336Z,26.10
2018-03-11T21:07:00.860Z,26.38
2018-03-11T21:09:30.093Z,26.66
2018-03-11T21:11:59.539Z,26.80
2018-03-11T21:14:29.676Z,25.87
2018-03-11T21:16:58.938Z,25.20
2018-03-11T21:19:27.909Z,25.70
2018-03-11T21:21:57.286Z,26.03
2018-03-11T21:24:26.640Z,26.31
2018-03-11T21:26:55.865Z,26.63
2018-03-11T21:29:25.314Z,26.79
2018-03-11T21:31:54.561Z,25.92
2018-03-11T21:34:24.017Z,25.17
2018-03-11T21:36:53.243Z,25.57
2018-03-11T21:39:22.406Z,25.99
2018-03-11T21:41:51.831Z,26.26
2018-03-11T21:44:21.205Z,26.55
2018-03-11T21:46:50.702Z,26.74
2018-03-11T21:49:20.530Z,26.17
2018-03-11T21:51:49.914Z,25.26
2018-03-11T21:54:19.237Z,25.37
2018-03-11T21:56:48.672Z,25.80
2018-03-11T21:59:18.001Z,26.15
2018-03-11T22:01:47.369Z,26.45
2018-03-11T22:04:16.957Z,26.73
2018-03-11T22:06:46.063Z,26.76
2018-03-11T22:09:15.287Z,25.81
2018-03-11T22:11:44.599Z,25.12
2018-03-11T22:14:13.709Z,25.61
2018-03-11T22:16:42.916Z,25.98
2018-03-11T22:19:12.357Z,26.27
2018-03-11T22:21:41.680Z,26.54
2018-03-11T22:24:10.871Z,26.75
2018-03-11T22:26:40.011Z,26.38
2018-03-11T22:29:09.059Z,25.40
2018-03-11T22:31:38.291Z,25.20
2018-03-11T22:34:07.735Z,25.75
2018-03-11T22:36:36.890Z,25.99
2018-03-11T22:39:06.328Z,26.29
2018-03-11T22:41:35.566Z,26.53
2018-03-11T22:44:04.728Z,26.70
2018-03-11T22:46:33.916Z,26.02
2018-03-11T22:49:03.355Z,25.17
2018-03-11T22:51:32.731Z,25.11
2018-03-11T22:54:01.945Z,25.64
2018-03-11T22:56:31.281Z,25.97
2018-03-11T22:59:00.473Z,26.27
2018-03-11T23:01:29.902Z,26.52
2018-03-11T23:03:59.302Z,26.66
2018-03-11T23:06:28.528Z,26.47
2018-03-11T23:08:57.931Z,25.52
2018-03-11T23:11:27.229Z,24.96
2018-03-11T23:13:56.222Z,25.45
2018-03-11T23:16:25.482Z,25.79
2018-03-11T23:19:06.235Z,26.08
2018-03-11T23:21:35.578Z,26.37
2018-03-11T23:24:05.043Z,26.53
2018-03-11T23:26:34.434Z,26.63
2018-03-11T23:29:03.786Z,25.85
2018-03-11T23:31:33.430Z,24.78
2018-03-11T23:34:02.330Z,25.05
2018-03-11T23:36:31.845Z,25.52
2018-03-11T23:39:01.088Z,25.75
2018-03-11T23:41:30.283Z,26.09
2018-03-11T23:43:59.336Z,26.35
2018-03-11T23:46:28.524Z,26.48
2018-03-11T23:48:58.004Z,26.58
2018-03-11T23:51:27.355Z,26.50
2018-03-11T23:53:56.831Z,25.40
2018-03-11T23:56:26.066Z,24.75
2018-03-11T23:58:55.303Z,25.30
